createdAt,value
2018-11-22T12:17:46.042Z,32.37
2018-11-22T12:20:49.139Z,27.70
2018-11-22T12:23:52.213Z,28.47
2018-11-22T12:26:55.323Z,31.40
2018-11-22T12:29:58.443Z,33.43
2018-11-22T12:33:12.787Z,35.67
2018-11-22T12:36:21.851Z,33.80
2018-11-22T12:39:24.966Z,32.93
2018-11-22T12:42:28.095Z,29.17
2018-11-22T12:45:31.694Z,32.53
2018-11-22T12:48:34.776Z,36.47
2018-11-22T12:51:37.875Z,36.37
2018-11-22T12:54:40.974Z,37.70
2018-11-22T12:57:44.178Z,35.77
2018-11-22T13:00:47.267Z,34.50
2018-11-22T13:03:50.346Z,38.73
2018-11-22T13:06:53.451Z,39.30
2018-11-22T13:09:56.539Z,41.67
2018-11-22T13:12:59.686Z,39.97
2018-11-22T13:16:02.779Z,41.90
2018-11-22T13:19:05.870Z,43.53
2018-11-22T13:22:09.311Z,41.20
2018-11-22T13:25:14.058Z,43.20
2018-11-22T13:28:17.114Z,46.27
2018-11-22T13:31:20.241Z,48.07
2018-11-22T13:34:23.326Z,45.00
2018-11-22T13:37:26.414Z,48.83
2018-11-22T13:40:29.495Z,52.00
2018-11-22T13:43:32.582Z,52.10
2018-11-22T13:46:35.694Z,46.90
2018-11-22T13:49:38.771Z,51.37
2018-11-22T13:52:42.391Z,47.53
2018-11-22T13:55:45.474Z,46.63
2018-11-22T13:58:48.621Z,51.77
2018-11-22T14:01:51.774Z,53.93
2018-11-22T14:04:54.858Z,48.47
2018-11-22T14:07:57.929Z,53.27
2018-11-22T14:11:01.021Z,54.33
2018-11-22T14:14:04.568Z,50.50
2018-11-22T14:17:07.633Z,57.43
2018-11-22T14:20:15.726Z,54.93
2018-11-22T14:23:18.831Z,55.67
2018-11-22T14:26:21.931Z,59.53
2018-11-22T14:29:25.022Z,56.07
2018-11-22T14:32:28.084Z,60.60
2018-11-22T14:35:31.220Z,63.00
2018-11-22T14:38:34.300Z,64.33
2018-11-22T14:41:37.398Z,59.63
2018-11-22T14:44:40.482Z,63.03
2018-11-22T14:47:44.579Z,66.50
2018-11-22T14:50:58.053Z,58.87
2018-11-22T14:54:01.115Z,57.43
2018-11-22T14:57:04.240Z,56.07
2018-11-22T15:00:11.559Z,62.83
2018-11-22T15:03:14.646Z,61.60
2018-11-22T15:06:17.711Z,57.03
2018-11-22T15:09:20.801Z,63.43
2018-11-22T15:12:23.894Z,59.77
2018-11-22T15:15:27.854Z,60.97
2018-11-22T15:18:30.935Z,49.23
2018-11-22T15:21:34.011Z,53.80
2018-11-22T15:24:37.092Z,60.27
2018-11-22T15:27:40.526Z,56.97
2018-11-22T15:30:43.612Z,57.40
2018-11-22T15:33:46.706Z,59.60
2018-11-22T15:36:49.815Z,57.77
2018-11-22T15:39:52.903Z,50.93
2018-11-22T15:42:57.553Z,54.37
2018-11-22T15:46:00.630Z,54.50
2018-11-22T15:49:03.723Z,50.80
2018-11-22T15:52:06.822Z,50.57
2018-11-22T15:55:10.610Z,44.93
2018-11-22T15:58:13.682Z,53.03
2018-11-22T16:01:17.700Z,41.87
2018-11-22T16:04:20.798Z,49.50
2018-11-22T16:07:23.867Z,45.97
2018-11-22T16:10:28.317Z,45.53
2018-11-22T16:13:31.414Z,44.40
2018-11-22T16:16:34.557Z,49.27
2018-11-22T16:19:37.615Z,45.93
2018-11-22T16:22:40.882Z,45.43
2018-11-22T16:25:43.955Z,45.40
2018-11-22T16:28:47.070Z,49.33
2018-11-22T16:31:50.187Z,46.37
2018-11-22T16:34:53.291Z,48.20
2018-11-22T16:37:56.370Z,49.73
2018-11-22T16:40:59.444Z,53.33
2018-11-22T16:44:03.284Z,49.27
2018-11-22T16:47:05.784Z,49.27
2018-11-22T16:50:10.470Z,54.93
2018-11-22T16:53:13.571Z,53.00
2018-11-22T16:56:16.688Z,60.97
2018-11-22T16:59:19.766Z,54.63
2018-11-22T17:02:22.858Z,51.67
2018-11-22T17:05:26.129Z,51.00
2018-11-22T17:08:29.379Z,55.43
2018-11-22T17:11:33.345Z,57.33
2018-11-22T17:14:54.714Z,56.13
2018-11-22T17:17:58.354Z,56.40
2018-11-22T17:21:01.419Z,51.40
2018-11-22T17:24:04.989Z,55.03
2018-11-22T17:27:08.099Z,49.33
2018-11-22T17:30:13.558Z,51.63
2018-11-22T17:33:16.650Z,54.83
2018-11-22T17:36:19.723Z,49.67
2018-11-22T17:39:22.851Z,48.23
2018-11-22T17:42:26.042Z,51.07
2018-11-22T17:45:31.390Z,53.77
2018-11-22T17:48:34.474Z,57.77
2018-11-22T17:51:37.573Z,59.33
2018-11-22T17:54:40.682Z,55.57
2018-11-22T17:57:43.762Z,62.40
2018-11-22T18:00:49.061Z,64.53
2018-11-22T18:03:52.136Z,59.27
2018-11-22T18:06:55.211Z,57.00
2018-11-22T18:09:58.278Z,56.50
2018-11-22T18:13:01.598Z,54.87
2018-11-22T18:16:04.782Z,58.07
2018-11-22T18:19:07.867Z,56.73
2018-11-22T18:22:10.938Z,57.00
2018-11-22T18:25:18.437Z,56.80
2018-11-22T18:28:21.531Z,54.27
2018-11-22T18:31:24.638Z,61.63
2018-11-22T18:34:27.742Z,56.73
2018-11-22T18:37:30.827Z,64.67
2018-11-22T18:40:35.562Z,56.77
2018-11-22T18:43:38.619Z,55.63
2018-11-22T18:46:41.746Z,56.87
2018-11-22T18:49:44.935Z,56.23
2018-11-22T18:52:48.218Z,58.27
2018-11-22T18:55:51.347Z,59.93
2018-11-22T18:58:54.443Z,63.03
2018-11-22T19:01:57.506Z,57.30
2018-11-22T19:05:00.586Z,67.77
2018-11-22T19:08:03.966Z,62.47
2018-11-22T19:11:07.075Z,64.90
2018-11-22T19:14:10.186Z,64.43
2018-11-22T19:17:13.296Z,70.97
2018-11-22T19:20:19.101Z,70.30
2018-11-22T19:23:22.187Z,64.57
2018-11-22T19:26:25.268Z,71.87
2018-11-22T19:29:28.355Z,69.37
2018-11-22T19:32:32.124Z,65.93
2018-11-22T19:35:37.150Z,71.87
2018-11-22T19:38:40.287Z,65.87
2018-11-22T19:41:43.387Z,65.47
2018-11-22T19:44:46.483Z,65.63
2018-11-22T19:47:49.955Z,76.00
2018-11-22T19:50:53.094Z,71.10
2018-11-22T19:53:56.143Z,72.70
2018-11-22T19:56:59.234Z,66.23
2018-11-22T20:00:02.451Z,69.37
2018-11-22T20:03:06.696Z,73.87
2018-11-22T20:06:09.766Z,68.53
2018-11-22T20:09:12.889Z,74.07
2018-11-22T20:12:15.970Z,66.40
2018-11-22T20:15:19.094Z,77.90
2018-11-22T20:18:22.206Z,70.07
2018-11-22T20:21:25.333Z,73.47
2018-11-22T20:24:28.445Z,80.57
2018-11-22T20:27:31.591Z,68.90
2018-11-22T20:30:36.375Z,69.57
2018-11-22T20:33:39.638Z,69.67
2018-11-22T20:36:42.723Z,66.17
2018-11-22T20:39:45.954Z,70.63
2018-11-22T20:42:49.054Z,65.63
2018-11-22T20:45:52.144Z,66.17
2018-11-22T20:48:55.235Z,69.70
2018-11-22T20:51:58.339Z,71.93
2018-11-22T20:55:01.453Z,73.87
2018-11-22T20:58:05.508Z,72.50
2018-11-22T21:01:08.578Z,76.60
2018-11-22T21:04:11.657Z,73.90
2018-11-22T21:07:14.755Z,74.43
2018-11-22T21:10:21.131Z,71.93
2018-11-22T21:13:24.246Z,76.63
2018-11-22T21:16:27.691Z,66.90
2018-11-22T21:19:30.782Z,67.87
2018-11-22T21:22:33.842Z,78.50
2018-11-22T21:25:36.940Z,70.93
2018-11-22T21:28:40.062Z,70.90
2018-11-22T21:31:46.831Z,64.40
2018-11-22T21:34:49.929Z,68.93
2018-11-22T21:37:54.192Z,62.27
2018-11-22T21:40:57.267Z,72.80
2018-11-22T21:44:00.356Z,63.03
2018-11-22T21:47:03.430Z,69.13
2018-11-22T21:50:07.532Z,68.53
2018-11-22T21:53:10.618Z,63.70
2018-11-22T21:56:13.754Z,64.30
2018-11-22T21:59:16.863Z,68.30
2018-11-22T22:02:19.975Z,62.60
2018-11-22T22:05:35.236Z,62.87
2018-11-22T22:08:38.346Z,66.17
2018-11-22T22:11:41.419Z,65.93
2018-11-22T22:14:44.511Z,65.73
2018-11-22T22:17:54.274Z,65.30
2018-11-22T22:20:57.354Z,60.47
2018-11-22T22:24:00.440Z,70.17
2018-11-22T22:27:03.523Z,67.70
2018-11-22T22:30:08.224Z,71.13
2018-11-22T22:33:11.353Z,68.57
2018-11-22T22:36:14.440Z,71.50
2018-11-22T22:39:17.521Z,67.97
2018-11-22T22:42:20.827Z,61.80
2018-11-22T22:45:25.043Z,62.97
2018-11-22T22:48:28.163Z,63.27
2018-11-22T22:51:31.253Z,62.83
2018-11-22T22:54:34.338Z,62.90
2018-11-22T22:57:37.426Z,70.60
2018-11-22T23:00:45.845Z,68.13
2018-11-22T23:03:48.972Z,68.50
2018-11-22T23:06:52.106Z,70.50
2018-11-22T23:09:55.219Z,67.30
2018-11-22T23:12:59.130Z,62.40
2018-11-22T23:16:02.228Z,65.30
2018-11-22T23:19:05.371Z,72.20
2018-11-22T23:22:08.440Z,66.13
2018-11-22T23:25:12.504Z,66.33
2018-11-22T23:28:15.601Z,71.80
2018-11-22T23:31:18.676Z,77.83
2018-11-22T23:34:21.979Z,79.47
2018-11-22T23:37:25.068Z,64.47
2018-11-22T23:40:29.203Z,68.60
2018-11-22T23:43:32.307Z,82.27
2018-11-22T23:46:35.391Z,70.73
2018-11-22T23:49:38.446Z,76.17
2018-11-22T23:52:42.400Z,72.10
2018-11-22T23:55:45.482Z,74.37
2018-11-22T23:58:48.938Z,71.00
